sensor_id;sensor_type;location;lat;lon;timestamp;temperature;humidity
3630;DHT22;1831;53.626;10.012;2022-09-27T00:01:31;18.00;72.70
3630;DHT22;1831;53.626;10.012;2022-09-27T00:03:58;18.00;72.60
3630;DHT22;1831;53.626;10.012;2022-09-27T00:06:27;18.00;72.60
3630;DHT22;1831;53.626;10.012;2022-09-27T00:08:54;18.00;72.40
3630;DHT22;1831;53.626;10.012;2022-09-27T00:11:25;18.00;72.40
3630;DHT22;1831;53.626;10.012;2022-09-27T00:13:53;18.00;72.40
3630;DHT22;1831;53.626;10.012;2022-09-27T00:16:21;18.00;72.30
3630;DHT22;1831;53.626;10.012;2022-09-27T00:18:49;18.00;72.40
3630;DHT22;1831;53.626;10.012;2022-09-27T00:21:16;18.00;72.30
3630;DHT22;1831;53.626;10.012;2022-09-27T00:23:43;18.00;72.30
3630;DHT22;1831;53.626;10.012;2022-09-27T00:26:12;18.00;72.20
3630;DHT22;1831;53.626;10.012;2022-09-27T00:28:39;18.00;72.20
3630;DHT22;1831;53.626;10.012;2022-09-27T00:31:16;18.10;72.30
3630;DHT22;1831;53.626;10.012;2022-09-27T00:33:45;18.00;72.20
3630;DHT22;1831;53.626;10.012;2022-09-27T00:36:14;18.00;72.10
3630;DHT22;1831;53.626;10.012;2022-09-27T00:38:41;18.00;72.00
3630;DHT22;1831;53.626;10.012;2022-09-27T00:41:12;18.00;72.00
3630;DHT22;1831;53.626;10.012;2022-09-27T00:43:48;18.00;72.10
3630;DHT22;1831;53.626;10.012;2022-09-27T00:46:21;18.00;72.30
3630;DHT22;1831;53.626;10.012;2022-09-27T00:48:59;17.90;72.20
3630;DHT22;1831;53.626;10.012;2022-09-27T00:51:30;18.00;72.30
3630;DHT22;1831;53.626;10.012;2022-09-27T00:53:57;17.90;72.10
3630;DHT22;1831;53.626;10.012;2022-09-27T00:56:28;17.90;72.20
3630;DHT22;1831;53.626;10.012;2022-09-27T00:58:58;17.90;72.30
3630;DHT22;1831;53.626;10.012;2022-09-27T01:01:27;17.90;72.30
3630;DHT22;1831;53.626;10.012;2022-09-27T01:03:59;17.90;72.30
3630;DHT22;1831;53.626;10.012;2022-09-27T01:06:31;17.90;72.40
3630;DHT22;1831;53.626;10.012;2022-09-27T01:08:58;17.90;72.30
3630;DHT22;1831;53.626;10.012;2022-09-27T01:11:34;17.90;72.30
3630;DHT22;1831;53.626;10.012;2022-09-27T01:14:31;18.00;72.50
3630;DHT22;1831;53.626;10.012;2022-09-27T01:17:11;18.00;72.40
3630;DHT22;1831;53.626;10.012;2022-09-27T01:19:57;18.00;72.30
3630;DHT22;1831;53.626;10.012;2022-09-27T01:22:33;18.00;72.40
3630;DHT22;1831;53.626;10.012;2022-09-27T01:25:18;18.00;72.30
3630;DHT22;1831;53.626;10.012;2022-09-27T01:28:12;18.00;72.20
3630;DHT22;1831;53.626;10.012;2022-09-27T01:30:47;18.00;72.30
3630;DHT22;1831;53.626;10.012;2022-09-27T01:33:41;18.00;72.20
3630;DHT22;1831;53.626;10.012;2022-09-27T01:36:18;18.00;72.30
3630;DHT22;1831;53.626;10.012;2022-09-27T01:38:55;18.00;72.30
3630;DHT22;1831;53.626;10.012;2022-09-27T01:41:29;18.00;73.10
3630;DHT22;1831;53.626;10.012;2022-09-27T01:44:02;18.00;72.90
3630;DHT22;1831;53.626;10.012;2022-09-27T01:46:34;18.00;72.20
3630;DHT22;1831;53.626;10.012;2022-09-27T01:49:09;18.00;72.30
3630;DHT22;1831;53.626;10.012;2022-09-27T01:51:40;18.00;72.30
3630;DHT22;1831;53.626;10.012;2022-09-27T01:54:13;18.00;72.20
3630;DHT22;1831;53.626;10.012;2022-09-27T01:56:46;18.00;72.20
3630;DHT22;1831;53.626;10.012;2022-09-27T01:59:17;18.00;72.30
3630;DHT22;1831;53.626;10.012;2022-09-27T02:01:48;18.00;72.30
3630;DHT22;1831;53.626;10.012;2022-09-27T02:04:19;18.00;72.30
3630;DHT22;1831;53.626;10.012;2022-09-27T02:06:52;18.00;72.20
3630;DHT22;1831;53.626;10.012;2022-09-27T02:09:23;18.00;72.40
3630;DHT22;1831;53.626;10.012;2022-09-27T02:11:54;18.00;72.40
3630;DHT22;1831;53.626;10.012;2022-09-27T02:14:27;18.00;72.40
3630;DHT22;1831;53.626;10.012;2022-09-27T02:16:59;18.00;72.30
3630;DHT22;1831;53.626;10.012;2022-09-27T02:19:35;18.00;72.40
3630;DHT22;1831;53.626;10.012;2022-09-27T02:22:12;18.00;72.40
3630;DHT22;1831;53.626;10.012;2022-09-27T02:24:44;17.90;72.40
3630;DHT22;1831;53.626;10.012;2022-09-27T02:27:17;17.90;72.40
3630;DHT22;1831;53.626;10.012;2022-09-27T02:29:52;18.00;72.40
3630;DHT22;1831;53.626;10.012;2022-09-27T02:32:23;17.90;72.30
3630;DHT22;1831;53.626;10.012;2022-09-27T02:34:51;18.00;72.40
3630;DHT22;1831;53.626;10.012;2022-09-27T02:37:20;18.00;72.50
3630;DHT22;1831;53.626;10.012;2022-09-27T02:39:47;18.00;72.50
3630;DHT22;1831;53.626;10.012;2022-09-27T02:42:14;18.00;72.40
3630;DHT22;1831;53.626;10.012;2022-09-27T02:44:42;18.00;72.30
3630;DHT22;1831;53.626;10.012;2022-09-27T02:50:38;18.00;72.40
3630;DHT22;1831;53.626;10.012;2022-09-27T02:53:13;18.00;72.40
3630;DHT22;1831;53.626;10.012;2022-09-27T02:55:50;18.00;72.50
3630;DHT22;1831;53.626;10.012;2022-09-27T02:58:27;18.00;72.50
3630;DHT22;1831;53.626;10.012;2022-09-27T03:01:04;18.00;72.40
3630;DHT22;1831;53.626;10.012;2022-09-27T03:03:38;18.00;72.40
3630;DHT22;1831;53.626;10.012;2022-09-27T03:06:11;18.00;72.40
3630;DHT22;1831;53.626;10.012;2022-09-27T03:08:39;18.00;72.40
3630;DHT22;1831;53.626;10.012;2022-09-27T03:11:06;18.00;72.30
3630;DHT22;1831;53.626;10.012;2022-09-27T03:13:33;18.00;72.40
3630;DHT22;1831;53.626;10.012;2022-09-27T03:16:03;18.00;72.50
3630;DHT22;1831;53.626;10.012;2022-09-27T03:18:30;18.00;72.40
3630;DHT22;1831;53.626;10.012;2022-09-27T03:20:57;18.00;72.40
3630;DHT22;1831;53.626;10.012;2022-09-27T03:23:26;18.00;72.40
3630;DHT22;1831;53.626;10.012;2022-09-27T03:25:53;17.90;72.30
3630;DHT22;1831;53.626;10.012;2022-09-27T03:28:20;17.90;72.40
3630;DHT22;1831;53.626;10.012;2022-09-27T03:30:47;17.90;73.10
3630;DHT22;1831;53.626;10.012;2022-09-27T03:33:14;17.90;72.40
3630;DHT22;1831;53.626;10.012;2022-09-27T03:35:41;17.90;72.50
3630;DHT22;1831;53.626;10.012;2022-09-27T03:38:09;17.90;72.50
3630;DHT22;1831;53.626;10.012;2022-09-27T03:40:37;17.90;72.50
3630;DHT22;1831;53.626;10.012;2022-09-27T03:43:04;18.00;72.60
3630;DHT22;1831;53.626;10.012;2022-09-27T03:45:31;18.00;73.30
3630;DHT22;1831;53.626;10.012;2022-09-27T03:47:58;18.00;72.50
3630;DHT22;1831;53.626;10.012;2022-09-27T03:50:25;18.00;72.50
3630;DHT22;1831;53.626;10.012;2022-09-27T03:52:52;18.00;72.50
3630;DHT22;1831;53.626;10.012;2022-09-27T03:55:19;18.00;72.50
3630;DHT22;1831;53.626;10.012;2022-09-27T03:57:47;18.00;72.40
3630;DHT22;1831;53.626;10.012;2022-09-27T04:00:14;18.00;72.40
3630;DHT22;1831;53.626;10.012;2022-09-27T04:02:41;18.00;72.40
3630;DHT22;1831;53.626;10.012;2022-09-27T04:05:09;18.00;72.40
3630;DHT22;1831;53.626;10.012;2022-09-27T04:07:36;18.00;72.50
3630;DHT22;1831;53.626;10.012;2022-09-27T04:10:04;18.00;72.50
3630;DHT22;1831;53.626;10.012;2022-09-27T04:12:31;18.00;72.50
3630;DHT22;1831;53.626;10.012;2022-09-27T04:15:00;18.00;72.50
3630;DHT22;1831;53.626;10.012;2022-09-27T04:17:27;18.00;72.50
3630;DHT22;1831;53.626;10.012;2022-09-27T04:19:53;18.00;72.50
3630;DHT22;1831;53.626;10.012;2022-09-27T04:22:20;18.00;72.50
3630;DHT22;1831;53.626;10.012;2022-09-27T04:24:48;18.00;72.50
3630;DHT22;1831;53.626;10.012;2022-09-27T04:27:15;18.00;72.50
3630;DHT22;1831;53.626;10.012;2022-09-27T04:29:42;18.00;72.50
3630;DHT22;1831;53.626;10.012;2022-09-27T04:32:11;18.00;72.60
3630;DHT22;1831;53.626;10.012;2022-09-27T04:34:39;18.00;72.60
3630;DHT22;1831;53.626;10.012;2022-09-27T04:37:23;18.00;72.60
3630;DHT22;1831;53.626;10.012;2022-09-27T04:39:50;18.00;72.60
3630;DHT22;1831;53.626;10.012;2022-09-27T04:42:17;18.00;72.60
3630;DHT22;1831;53.626;10.012;2022-09-27T04:44:44;18.00;72.70
3630;DHT22;1831;53.626;10.012;2022-09-27T04:47:13;18.00;72.60
3630;DHT22;1831;53.626;10.012;2022-09-27T04:49:41;18.00;72.60
3630;DHT22;1831;53.626;10.012;2022-09-27T04:52:08;18.00;72.70
3630;DHT22;1831;53.626;10.012;2022-09-27T04:54:35;18.00;72.70
3630;DHT22;1831;53.626;10.012;2022-09-27T04:57:02;18.00;72.80
3630;DHT22;1831;53.626;10.012;2022-09-27T04:59:29;18.00;72.80
3630;DHT22;1831;53.626;10.012;2022-09-27T05:01:56;18.00;72.80
3630;DHT22;1831;53.626;10.012;2022-09-27T05:04:26;18.00;72.80
3630;DHT22;1831;53.626;10.012;2022-09-27T05:06:54;18.10;72.90
3630;DHT22;1831;53.626;10.012;2022-09-27T05:09:21;18.10;72.80
3630;DHT22;1831;53.626;10.012;2022-09-27T05:11:48;18.10;73.00
3630;DHT22;1831;53.626;10.012;2022-09-27T05:14:15;18.00;72.80
3630;DHT22;1831;53.626;10.012;2022-09-27T05:16:42;18.10;73.00
3630;DHT22;1831;53.626;10.012;2022-09-27T05:19:09;18.10;73.00
3630;DHT22;1831;53.626;10.012;2022-09-27T05:21:37;18.10;73.00
3630;DHT22;1831;53.626;10.012;2022-09-27T05:24:04;18.00;73.00
3630;DHT22;1831;53.626;10.012;2022-09-27T05:26:31;18.00;72.90
3630;DHT22;1831;53.626;10.012;2022-09-27T05:28:58;18.00;72.90
3630;DHT22;1831;53.626;10.012;2022-09-27T05:31:24;18.00;72.90
3630;DHT22;1831;53.626;10.012;2022-09-27T05:33:52;18.00;72.90
3630;DHT22;1831;53.626;10.012;2022-09-27T05:36:20;18.00;73.00
3630;DHT22;1831;53.626;10.012;2022-09-27T05:38:49;18.00;73.10
3630;DHT22;1831;53.626;10.012;2022-09-27T05:41:16;18.00;73.10
3630;DHT22;1831;53.626;10.012;2022-09-27T05:43:43;17.90;73.20
3630;DHT22;1831;53.626;10.012;2022-09-27T05:46:10;17.90;73.20
3630;DHT22;1831;53.626;10.012;2022-09-27T05:48:37;17.90;73.20
3630;DHT22;1831;53.626;10.012;2022-09-27T05:51:04;17.90;73.30
3630;DHT22;1831;53.626;10.012;2022-09-27T05:53:31;17.90;73.40
3630;DHT22;1831;53.626;10.012;2022-09-27T05:56:01;17.90;73.30
3630;DHT22;1831;53.626;10.012;2022-09-27T05:58:28;17.90;73.30
3630;DHT22;1831;53.626;10.012;2022-09-27T06:00:55;17.90;73.40
3630;DHT22;1831;53.626;10.012;2022-09-27T06:03:23;17.90;73.30
3630;DHT22;1831;53.626;10.012;2022-09-27T06:05:50;18.00;73.40
3630;DHT22;1831;53.626;10.012;2022-09-27T06:08:17;17.90;73.30
3630;DHT22;1831;53.626;10.012;2022-09-27T06:10:45;17.90;73.40
3630;DHT22;1831;53.626;10.012;2022-09-27T06:13:15;17.90;73.90
3630;DHT22;1831;53.626;10.012;2022-09-27T06:15:44;17.90;74.10
3630;DHT22;1831;53.626;10.012;2022-09-27T06:18:13;18.00;75.30
3630;DHT22;1831;53.626;10.012;2022-09-27T06:20:42;17.90;74.30
3630;DHT22;1831;53.626;10.012;2022-09-27T06:23:11;17.90;74.40
3630;DHT22;1831;53.626;10.012;2022-09-27T06:25:39;17.90;74.40
3630;DHT22;1831;53.626;10.012;2022-09-27T06:28:07;18.00;74.90
3630;DHT22;1831;53.626;10.012;2022-09-27T06:30:37;18.00;74.60
3630;DHT22;1831;53.626;10.012;2022-09-27T06:33:05;18.10;74.60
3630;DHT22;1831;53.626;10.012;2022-09-27T06:35:33;18.10;74.30
3630;DHT22;1831;53.626;10.012;2022-09-27T06:38:02;18.00;74.00
3630;DHT22;1831;53.626;10.012;2022-09-27T06:40:29;17.80;74.30
3630;DHT22;1831;53.626;10.012;2022-09-27T06:43:01;17.80;74.50
3630;DHT22;1831;53.626;10.012;2022-09-27T06:45:28;17.90;74.50
3630;DHT22;1831;53.626;10.012;2022-09-27T06:47:57;17.90;74.30
3630;DHT22;1831;53.626;10.012;2022-09-27T06:50:26;17.80;74.40
3630;DHT22;1831;53.626;10.012;2022-09-27T06:52:54;17.80;74.50
3630;DHT22;1831;53.626;10.012;2022-09-27T06:55:21;17.80;74.50
3630;DHT22;1831;53.626;10.012;2022-09-27T06:57:47;17.80;74.50
3630;DHT22;1831;53.626;10.012;2022-09-27T07:00:32;17.60;74.90
3630;DHT22;1831;53.626;10.012;2022-09-27T07:03:00;17.60;75.20
3630;DHT22;1831;53.626;10.012;2022-09-27T07:05:27;17.70;75.00
3630;DHT22;1831;53.626;10.012;2022-09-27T07:07:55;17.70;75.00
3630;DHT22;1831;53.626;10.012;2022-09-27T07:10:23;17.80;75.00
3630;DHT22;1831;53.626;10.012;2022-09-27T07:12:51;17.70;75.00
3630;DHT22;1831;53.626;10.012;2022-09-27T07:15:18;17.60;75.10
3630;DHT22;1831;53.626;10.012;2022-09-27T07:17:46;17.60;75.10
3630;DHT22;1831;53.626;10.012;2022-09-27T07:20:14;17.50;75.40
3630;DHT22;1831;53.626;10.012;2022-09-27T07:22:41;17.50;74.50
3630;DHT22;1831;53.626;10.012;2022-09-27T07:25:10;17.50;74.30
3630;DHT22;1831;53.626;10.012;2022-09-27T07:27:37;17.50;74.30
3630;DHT22;1831;53.626;10.012;2022-09-27T07:30:07;17.50;74.60
3630;DHT22;1831;53.626;10.012;2022-09-27T07:32:35;17.30;74.60
3630;DHT22;1831;53.626;10.012;2022-09-27T07:35:03;17.30;74.60
3630;DHT22;1831;53.626;10.012;2022-09-27T07:37:32;17.20;74.90
3630;DHT22;1831;53.626;10.012;2022-09-27T07:40:00;17.10;75.10
3630;DHT22;1831;53.626;10.012;2022-09-27T07:42:28;16.70;75.50
3630;DHT22;1831;53.626;10.012;2022-09-27T07:44:55;16.80;76.30
3630;DHT22;1831;53.626;10.012;2022-09-27T07:47:23;17.00;75.60
3630;DHT22;1831;53.626;10.012;2022-09-27T07:49:51;17.10;75.20
3630;DHT22;1831;53.626;10.012;2022-09-27T07:52:18;17.20;75.20
3630;DHT22;1831;53.626;10.012;2022-09-27T07:54:46;17.10;75.50
3630;DHT22;1831;53.626;10.012;2022-09-27T07:57:14;17.30;75.40
3630;DHT22;1831;53.626;10.012;2022-09-27T07:59:41;17.40;75.30
3630;DHT22;1831;53.626;10.012;2022-09-27T08:02:13;17.50;74.90
3630;DHT22;1831;53.626;10.012;2022-09-27T08:04:40;17.60;75.70
3630;DHT22;1831;53.626;10.012;2022-09-27T08:07:08;17.40;75.30
3630;DHT22;1831;53.626;10.012;2022-09-27T08:09:35;17.50;75.50
3630;DHT22;1831;53.626;10.012;2022-09-27T08:12:04;17.60;75.30
3630;DHT22;1831;53.626;10.012;2022-09-27T08:14:31;17.60;74.90
3630;DHT22;1831;53.626;10.012;2022-09-27T08:16:58;17.70;75.00
3630;DHT22;1831;53.626;10.012;2022-09-27T08:19:25;17.80;74.70
3630;DHT22;1831;53.626;10.012;2022-09-27T08:21:52;17.60;74.70
3630;DHT22;1831;53.626;10.012;2022-09-27T08:24:20;17.60;74.80
3630;DHT22;1831;53.626;10.012;2022-09-27T08:26:47;17.90;74.70
3630;DHT22;1831;53.626;10.012;2022-09-27T08:29:15;17.90;74.40
3630;DHT22;1831;53.626;10.012;2022-09-27T08:31:42;17.90;74.20
3630;DHT22;1831;53.626;10.012;2022-09-27T08:34:09;17.60;74.20
3630;DHT22;1831;53.626;10.012;2022-09-27T08:36:36;17.70;74.30
3630;DHT22;1831;53.626;10.012;2022-09-27T08:39:03;17.80;74.10
3630;DHT22;1831;53.626;10.012;2022-09-27T08:41:35;17.70;73.50
3630;DHT22;1831;53.626;10.012;2022-09-27T08:44:16;17.30;73.50
3630;DHT22;1831;53.626;10.012;2022-09-27T08:46:52;17.40;73.50
3630;DHT22;1831;53.626;10.012;2022-09-27T08:49:27;17.50;73.40
3630;DHT22;1831;53.626;10.012;2022-09-27T08:51:57;17.50;73.30
3630;DHT22;1831;53.626;10.012;2022-09-27T08:54:27;17.60;72.80
3630;DHT22;1831;53.626;10.012;2022-09-27T08:56:59;17.70;73.00
3630;DHT22;1831;53.626;10.012;2022-09-27T08:59:34;17.60;72.90
3630;DHT22;1831;53.626;10.012;2022-09-27T09:02:04;17.50;72.80
3630;DHT22;1831;53.626;10.012;2022-09-27T09:04:33;17.50;73.80
3630;DHT22;1831;53.626;10.012;2022-09-27T09:07:07;17.60;73.40
3630;DHT22;1831;53.626;10.012;2022-09-27T09:09:39;17.60;73.30
3630;DHT22;1831;53.626;10.012;2022-09-27T09:12:23;17.50;73.50
3630;DHT22;1831;53.626;10.012;2022-09-27T09:15:25;17.60;73.70
3630;DHT22;1831;53.626;10.012;2022-09-27T09:18:13;17.60;73.40
3630;DHT22;1831;53.626;10.012;2022-09-27T09:20:54;17.60;73.60
3630;DHT22;1831;53.626;10.012;2022-09-27T09:23:46;17.50;73.70
3630;DHT22;1831;53.626;10.012;2022-09-27T09:26:22;17.50;73.90
3630;DHT22;1831;53.626;10.012;2022-09-27T09:29:02;17.60;73.40
3630;DHT22;1831;53.626;10.012;2022-09-27T09:31:39;17.40;73.60
3630;DHT22;1831;53.626;10.012;2022-09-27T09:34:11;17.30;74.30
3630;DHT22;1831;53.626;10.012;2022-09-27T09:36:44;17.40;74.20
3630;DHT22;1831;53.626;10.012;2022-09-27T09:39:15;17.40;73.90
3630;DHT22;1831;53.626;10.012;2022-09-27T09:41:55;17.50;74.10
3630;DHT22;1831;53.626;10.012;2022-09-27T09:44:25;17.40;74.20
3630;DHT22;1831;53.626;10.012;2022-09-27T09:46:56;17.40;74.10
3630;DHT22;1831;53.626;10.012;2022-09-27T09:49:28;17.10;74.20
3630;DHT22;1831;53.626;10.012;2022-09-27T09:52:00;16.80;74.80
3630;DHT22;1831;53.626;10.012;2022-09-27T09:54:31;16.90;75.60
3630;DHT22;1831;53.626;10.012;2022-09-27T09:57:04;17.10;75.80
3630;DHT22;1831;53.626;10.012;2022-09-27T09:59:37;17.30;74.80
3630;DHT22;1831;53.626;10.012;2022-09-27T10:02:20;17.30;74.50
3630;DHT22;1831;53.626;10.012;2022-09-27T10:04:49;17.20;74.60
3630;DHT22;1831;53.626;10.012;2022-09-27T10:07:20;17.20;74.30
3630;DHT22;1831;53.626;10.012;2022-09-27T10:09:48;17.00;74.50
3630;DHT22;1831;53.626;10.012;2022-09-27T10:12:15;16.70;75.10
3630;DHT22;1831;53.626;10.012;2022-09-27T10:14:45;16.80;76.00
3630;DHT22;1831;53.626;10.012;2022-09-27T10:17:17;16.60;75.40
3630;DHT22;1831;53.626;10.012;2022-09-27T10:19:45;16.50;75.60
3630;DHT22;1831;53.626;10.012;2022-09-27T10:22:18;16.70;75.80
3630;DHT22;1831;53.626;10.012;2022-09-27T10:24:58;16.80;75.50
3630;DHT22;1831;53.626;10.012;2022-09-27T10:27:26;17.00;75.10
3630;DHT22;1831;53.626;10.012;2022-09-27T10:29:58;17.10;74.90
3630;DHT22;1831;53.626;10.012;2022-09-27T10:32:29;17.20;74.90
3630;DHT22;1831;53.626;10.012;2022-09-27T10:35:19;17.20;75.10
3630;DHT22;1831;53.626;10.012;2022-09-27T10:37:46;17.20;74.20
3630;DHT22;1831;53.626;10.012;2022-09-27T10:40:26;16.80;74.30
3630;DHT22;1831;53.626;10.012;2022-09-27T10:42:53;16.20;75.60
3630;DHT22;1831;53.626;10.012;2022-09-27T10:45:26;16.00;77.50
3630;DHT22;1831;53.626;10.012;2022-09-27T10:47:56;16.00;77.90
3630;DHT22;1831;53.626;10.012;2022-09-27T10:50:25;16.10;77.90
3630;DHT22;1831;53.626;10.012;2022-09-27T10:53:03;16.40;78.60
3630;DHT22;1831;53.626;10.012;2022-09-27T10:55:32;16.40;77.40
3630;DHT22;1831;53.626;10.012;2022-09-27T10:58:00;16.70;76.90
3630;DHT22;1831;53.626;10.012;2022-09-27T11:00:30;16.80;76.30
3630;DHT22;1831;53.626;10.012;2022-09-27T11:03:01;16.60;76.10
3630;DHT22;1831;53.626;10.012;2022-09-27T11:05:32;16.80;76.40
3630;DHT22;1831;53.626;10.012;2022-09-27T11:08:01;17.10;76.00
3630;DHT22;1831;53.626;10.012;2022-09-27T11:10:30;16.90;75.50
3630;DHT22;1831;53.626;10.012;2022-09-27T11:13:21;17.10;75.30
3630;DHT22;1831;53.626;10.012;2022-09-27T11:16:00;17.10;75.20
3630;DHT22;1831;53.626;10.012;2022-09-27T11:18:40;17.10;74.80
3630;DHT22;1831;53.626;10.012;2022-09-27T11:21:17;16.90;74.50
3630;DHT22;1831;53.626;10.012;2022-09-27T11:23:59;16.80;75.30
3630;DHT22;1831;53.626;10.012;2022-09-27T11:26:38;16.90;75.70
3630;DHT22;1831;53.626;10.012;2022-09-27T11:29:16;17.10;75.80
3630;DHT22;1831;53.626;10.012;2022-09-27T11:31:57;17.20;76.00
3630;DHT22;1831;53.626;10.012;2022-09-27T11:34:41;17.20;75.40
3630;DHT22;1831;53.626;10.012;2022-09-27T11:37:16;17.40;75.30
3630;DHT22;1831;53.626;10.012;2022-09-27T11:40:01;17.30;74.70
3630;DHT22;1831;53.626;10.012;2022-09-27T11:42:57;17.00;74.50
3630;DHT22;1831;53.626;10.012;2022-09-27T11:45:43;17.00;74.00
3630;DHT22;1831;53.626;10.012;2022-09-27T11:48:22;16.90;74.40
3630;DHT22;1831;53.626;10.012;2022-09-27T11:51:17;17.00;74.10
3630;DHT22;1831;53.626;10.012;2022-09-27T11:54:02;17.40;74.00
3630;DHT22;1831;53.626;10.012;2022-09-27T11:56:39;17.60;73.50
3630;DHT22;1831;53.626;10.012;2022-09-27T11:59:21;17.60;73.60
3630;DHT22;1831;53.626;10.012;2022-09-27T12:01:54;17.80;73.70
3630;DHT22;1831;53.626;10.012;2022-09-27T12:04:40;17.80;74.00
3630;DHT22;1831;53.626;10.012;2022-09-27T12:07:20;18.00;73.20
3630;DHT22;1831;53.626;10.012;2022-09-27T12:09:52;18.00;73.40
3630;DHT22;1831;53.626;10.012;2022-09-27T12:12:23;17.90;73.50
3630;DHT22;1831;53.626;10.012;2022-09-27T12:14:54;17.70;73.80
3630;DHT22;1831;53.626;10.012;2022-09-27T12:17:24;17.70;73.80
3630;DHT22;1831;53.626;10.012;2022-09-27T12:19:54;17.60;72.90
3630;DHT22;1831;53.626;10.012;2022-09-27T12:22:29;17.60;74.10
3630;DHT22;1831;53.626;10.012;2022-09-27T12:25:00;17.80;73.30
3630;DHT22;1831;53.626;10.012;2022-09-27T12:27:34;17.60;73.40
3630;DHT22;1831;53.626;10.012;2022-09-27T12:30:03;17.60;73.90
3630;DHT22;1831;53.626;10.012;2022-09-27T12:32:34;17.50;73.60
3630;DHT22;1831;53.626;10.012;2022-09-27T12:35:07;17.30;74.40
3630;DHT22;1831;53.626;10.012;2022-09-27T12:37:41;17.70;74.20
3630;DHT22;1831;53.626;10.012;2022-09-27T12:40:15;17.90;73.70
3630;DHT22;1831;53.626;10.012;2022-09-27T12:42:46;17.80;72.70
3630;DHT22;1831;53.626;10.012;2022-09-27T12:45:15;17.60;73.20
3630;DHT22;1831;53.626;10.012;2022-09-27T12:47:54;17.90;73.80
3630;DHT22;1831;53.626;10.012;2022-09-27T12:50:31;17.80;73.00
3630;DHT22;1831;53.626;10.012;2022-09-27T12:53:07;17.50;73.20
3630;DHT22;1831;53.626;10.012;2022-09-27T12:55:50;17.60;73.60
3630;DHT22;1831;53.626;10.012;2022-09-27T12:58:36;17.70;73.10
3630;DHT22;1831;53.626;10.012;2022-09-27T13:01:14;17.80;73.50
3630;DHT22;1831;53.626;10.012;2022-09-27T13:04:00;17.60;73.10
3630;DHT22;1831;53.626;10.012;2022-09-27T13:06:51;17.70;73.50
3630;DHT22;1831;53.626;10.012;2022-09-27T13:09:47;17.60;72.60
3630;DHT22;1831;53.626;10.012;2022-09-27T13:12:20;17.80;72.50
3630;DHT22;1831;53.626;10.012;2022-09-27T13:14:59;17.90;72.30
3630;DHT22;1831;53.626;10.012;2022-09-27T13:17:51;17.60;72.50
3630;DHT22;1831;53.626;10.012;2022-09-27T13:20:39;17.90;72.40
3630;DHT22;1831;53.626;10.012;2022-09-27T13:26:44;17.40;72.70
3630;DHT22;1831;53.626;10.012;2022-09-27T13:29:29;17.80;72.50
3630;DHT22;1831;53.626;10.012;2022-09-27T13:32:18;18.00;72.30
3630;DHT22;1831;53.626;10.012;2022-09-27T13:34:48;17.80;71.60
3630;DHT22;1831;53.626;10.012;2022-09-27T13:40:30;17.00;73.80
3630;DHT22;1831;53.626;10.012;2022-09-27T13:45:58;17.50;73.60
3630;DHT22;1831;53.626;10.012;2022-09-27T13:48:31;17.30;73.00
3630;DHT22;1831;53.626;10.012;2022-09-27T13:51:05;17.40;73.30
3630;DHT22;1831;53.626;10.012;2022-09-27T13:53:41;17.50;72.60
3630;DHT22;1831;53.626;10.012;2022-09-27T13:56:53;17.70;72.00
3630;DHT22;1831;53.626;10.012;2022-09-27T13:59:28;17.70;72.20
3630;DHT22;1831;53.626;10.012;2022-09-27T14:02:09;17.70;72.00
3630;DHT22;1831;53.626;10.012;2022-09-27T14:04:42;17.70;72.10
3630;DHT22;1831;53.626;10.012;2022-09-27T14:07:13;17.90;71.70
3630;DHT22;1831;53.626;10.012;2022-09-27T14:09:44;17.90;71.60
3630;DHT22;1831;53.626;10.012;2022-09-27T14:12:17;17.80;71.90
3630;DHT22;1831;53.626;10.012;2022-09-27T14:14:47;17.60;71.50
3630;DHT22;1831;53.626;10.012;2022-09-27T14:17:15;17.30;71.50
3630;DHT22;1831;53.626;10.012;2022-09-27T14:19:43;17.00;72.60
3630;DHT22;1831;53.626;10.012;2022-09-27T14:22:12;16.70;73.90
3630;DHT22;1831;53.626;10.012;2022-09-27T14:24:45;16.80;74.60
3630;DHT22;1831;53.626;10.012;2022-09-27T14:27:14;16.80;74.60
3630;DHT22;1831;53.626;10.012;2022-09-27T14:29:46;16.80;75.30
3630;DHT22;1831;53.626;10.012;2022-09-27T14:32:15;17.00;74.70
3630;DHT22;1831;53.626;10.012;2022-09-27T14:34:42;17.00;74.10
3630;DHT22;1831;53.626;10.012;2022-09-27T14:37:23;16.90;73.80
3630;DHT22;1831;53.626;10.012;2022-09-27T14:39:58;16.90;74.10
3630;DHT22;1831;53.626;10.012;2022-09-27T14:42:29;16.60;74.70
3630;DHT22;1831;53.626;10.012;2022-09-27T14:45:11;16.50;75.00
3630;DHT22;1831;53.626;10.012;2022-09-27T14:47:44;16.10;75.90
3630;DHT22;1831;53.626;10.012;2022-09-27T14:50:18;16.10;76.30
3630;DHT22;1831;53.626;10.012;2022-09-27T14:52:45;16.20;76.80
3630;DHT22;1831;53.626;10.012;2022-09-27T14:55:17;16.40;76.40
3630;DHT22;1831;53.626;10.012;2022-09-27T14:57:50;16.60;76.30
3630;DHT22;1831;53.626;10.012;2022-09-27T15:00:21;16.80;76.10
3630;DHT22;1831;53.626;10.012;2022-09-27T15:02:50;16.90;75.40
3630;DHT22;1831;53.626;10.012;2022-09-27T15:05:21;16.70;75.90
3630;DHT22;1831;53.626;10.012;2022-09-27T15:07:49;16.70;76.60
3630;DHT22;1831;53.626;10.012;2022-09-27T15:10:17;16.70;76.20
3630;DHT22;1831;53.626;10.012;2022-09-27T15:12:46;16.70;77.00
3630;DHT22;1831;53.626;10.012;2022-09-27T15:15:15;16.80;76.40
3630;DHT22;1831;53.626;10.012;2022-09-27T15:17:46;16.80;76.10
3630;DHT22;1831;53.626;10.012;2022-09-27T15:20:21;16.80;76.60
3630;DHT22;1831;53.626;10.012;2022-09-27T15:22:50;17.10;76.00
3630;DHT22;1831;53.626;10.012;2022-09-27T15:25:24;17.20;74.90
3630;DHT22;1831;53.626;10.012;2022-09-27T15:28:00;17.20;75.20
3630;DHT22;1831;53.626;10.012;2022-09-27T15:30:33;17.40;74.90
3630;DHT22;1831;53.626;10.012;2022-09-27T15:33:02;17.50;74.30
3630;DHT22;1831;53.626;10.012;2022-09-27T15:35:31;17.60;73.90
3630;DHT22;1831;53.626;10.012;2022-09-27T15:38:26;17.50;74.00
3630;DHT22;1831;53.626;10.012;2022-09-27T15:41:01;17.40;73.80
3630;DHT22;1831;53.626;10.012;2022-09-27T15:43:30;17.50;73.70
3630;DHT22;1831;53.626;10.012;2022-09-27T15:46:00;17.40;73.30
3630;DHT22;1831;53.626;10.012;2022-09-27T15:48:30;17.40;73.30
3630;DHT22;1831;53.626;10.012;2022-09-27T15:50:58;17.30;73.40
3630;DHT22;1831;53.626;10.012;2022-09-27T15:53:42;17.40;73.60
3630;DHT22;1831;53.626;10.012;2022-09-27T15:56:13;17.50;73.20
3630;DHT22;1831;53.626;10.012;2022-09-27T15:58:41;17.60;72.80
3630;DHT22;1831;53.626;10.012;2022-09-27T16:01:17;17.60;73.10
3630;DHT22;1831;53.626;10.012;2022-09-27T16:03:45;17.50;72.80
3630;DHT22;1831;53.626;10.012;2022-09-27T16:06:12;17.30;72.80
3630;DHT22;1831;53.626;10.012;2022-09-27T16:08:43;17.40;73.00
3630;DHT22;1831;53.626;10.012;2022-09-27T16:11:13;17.20;72.40
3630;DHT22;1831;53.626;10.012;2022-09-27T16:13:40;17.10;72.10
3630;DHT22;1831;53.626;10.012;2022-09-27T16:16:13;17.10;72.90
3630;DHT22;1831;53.626;10.012;2022-09-27T16:18:40;17.30;72.90
3630;DHT22;1831;53.626;10.012;2022-09-27T16:21:08;17.40;72.40
3630;DHT22;1831;53.626;10.012;2022-09-27T16:23:36;17.30;71.80
3630;DHT22;1831;53.626;10.012;2022-09-27T16:26:04;17.30;71.60
3630;DHT22;1831;53.626;10.012;2022-09-27T16:28:31;17.20;71.10